sensor_id;sensor_type;location;lat;lon;timestamp;pressure;altitude;pressure_sealevel;temperature;humidity
29433;BME280;16405;53.964;13.448;2024-01-15T00:01:50;98477.81;;;0.70;100.00
29433;BME280;16405;53.964;13.448;2024-01-15T00:04:19;98463.44;;;0.63;100.00
29433;BME280;16405;53.964;13.448;2024-01-15T00:06:58;98465.19;;;0.62;100.00
29433;BME280;16405;53.964;13.448;2024-01-15T00:09:37;98459.31;;;0.58;100.00
29433;BME280;16405;53.964;13.448;2024-01-15T00:14:58;98459.81;;;0.67;100.00
29433;BME280;16405;53.964;13.448;2024-01-15T00:17:48;98454.63;;;0.67;100.00
29433;BME280;16405;53.964;13.448;2024-01-15T00:20:19;98446.09;;;0.65;100.00
29433;BME280;16405;53.964;13.448;2024-01-15T00:23:07;98450.88;;;0.74;100.00
29433;BME280;16405;53.964;13.448;2024-01-15T00:25:53;98445.81;;;0.71;100.00
29433;BME280;16405;53.964;13.448;2024-01-15T00:28:19;98447.97;;;0.61;100.00
29433;BME280;16405;53.964;13.448;2024-01-15T00:34:06;98434.19;;;0.60;100.00
29433;BME280;16405;53.964;13.448;2024-01-15T00:36:32;98427.56;;;0.53;100.00
29433;BME280;16405;53.964;13.448;2024-01-15T00:39:10;98426.88;;;0.50;100.00
29433;BME280;16405;53.964;13.448;2024-01-15T00:41:37;98429.72;;;0.44;100.00
29433;BME280;16405;53.964;13.448;2024-01-15T00:44:03;98423.97;;;0.37;100.00
29433;BME280;16405;53.964;13.448;2024-01-15T00:46:59;98427.59;;;0.33;100.00
29433;BME280;16405;53.964;13.448;2024-01-15T00:49:31;98419.34;;;0.23;100.00
29433;BME280;16405;53.964;13.448;2024-01-15T00:52:00;98414.22;;;0.22;100.00
29433;BME280;16405;53.964;13.448;2024-01-15T00:54:35;98401.72;;;0.11;100.00
29433;BME280;16405;53.964;13.448;2024-01-15T00:57:01;98399.41;;;0.05;100.00
29433;BME280;16405;53.964;13.448;2024-01-15T00:59:28;98397.84;;;0.01;100.00
29433;BME280;16405;53.964;13.448;2024-01-15T01:01:54;98390.09;;;0.01;100.00
29433;BME280;16405;53.964;13.448;2024-01-15T01:04:30;98380.88;;;-0.07;100.00
29433;BME280;16405;53.964;13.448;2024-01-15T01:06:56;98369.59;;;-0.04;100.00
29433;BME280;16405;53.964;13.448;2024-01-15T01:09:22;98375.44;;;-0.01;100.00
29433;BME280;16405;53.964;13.448;2024-01-15T01:11:58;98366.84;;;-0.01;100.00
29433;BME280;16405;53.964;13.448;2024-01-15T01:14:24;98353.03;;;0.00;100.00
29433;BME280;16405;53.964;13.448;2024-01-15T01:16:50;98350.44;;;0.00;100.00
29433;BME280;16405;53.964;13.448;2024-01-15T01:19:16;98345.19;;;0.02;100.00
29433;BME280;16405;53.964;13.448;2024-01-15T01:21:49;98341.63;;;0.04;100.00
29433;BME280;16405;53.964;13.448;2024-01-15T01:24:18;98346.03;;;0.02;100.00
29433;BME280;16405;53.964;13.448;2024-01-15T01:26:52;98336.44;;;0.04;100.00
29433;BME280;16405;53.964;13.448;2024-01-15T01:29:18;98329.47;;;0.06;100.00
29433;BME280;16405;53.964;13.448;2024-01-15T01:31:47;98329.56;;;0.05;100.00
29433;BME280;16405;53.964;13.448;2024-01-15T01:34:21;98323.41;;;0.07;100.00
29433;BME280;16405;53.964;13.448;2024-01-15T01:36:49;98319.78;;;0.11;100.00
29433;BME280;16405;53.964;13.448;2024-01-15T01:39:38;98314.47;;;0.14;100.00
29433;BME280;16405;53.964;13.448;2024-01-15T01:42:07;98317.19;;;0.11;100.00
29433;BME280;16405;53.964;13.448;2024-01-15T01:47:12;98304.78;;;0.19;100.00
29433;BME280;16405;53.964;13.448;2024-01-15T01:49:38;98304.63;;;0.23;100.00
29433;BME280;16405;53.964;13.448;2024-01-15T01:52:11;98297.84;;;0.20;100.00
29433;BME280;16405;53.964;13.448;2024-01-15T01:54:58;98287.22;;;0.26;100.00
29433;BME280;16405;53.964;13.448;2024-01-15T01:57:48;98276.78;;;0.28;100.00
29433;BME280;16405;53.964;13.448;2024-01-15T02:00:17;98264.75;;;0.27;100.00
29433;BME280;16405;53.964;13.448;2024-01-15T02:03:00;98265.88;;;0.21;100.00
29433;BME280;16405;53.964;13.448;2024-01-15T02:05:40;98261.66;;;0.18;100.00
29433;BME280;16405;53.964;13.448;2024-01-15T02:08:15;98253.06;;;0.18;100.00
29433;BME280;16405;53.964;13.448;2024-01-15T02:10:41;98249.50;;;0.20;100.00
29433;BME280;16405;53.964;13.448;2024-01-15T02:13:07;98250.13;;;0.26;100.00
29433;BME280;16405;53.964;13.448;2024-01-15T02:15:58;98233.56;;;0.30;100.00
29433;BME280;16405;53.964;13.448;2024-01-15T02:18:26;98234.41;;;0.30;100.00
29433;BME280;16405;53.964;13.448;2024-01-15T02:20:58;98229.09;;;0.33;100.00
29433;BME280;16405;53.964;13.448;2024-01-15T02:23:27;98229.16;;;0.32;100.00
29433;BME280;16405;53.964;13.448;2024-01-15T02:25:55;98225.56;;;0.34;100.00
29433;BME280;16405;53.964;13.448;2024-01-15T02:28:27;98216.97;;;0.34;100.00
29433;BME280;16405;53.964;13.448;2024-01-15T02:31:00;98206.56;;;0.35;100.00
29433;BME280;16405;53.964;13.448;2024-01-15T02:33:48;98212.72;;;0.33;100.00
29433;BME280;16405;53.964;13.448;2024-01-15T02:36:17;98200.69;;;0.32;100.00
29433;BME280;16405;53.964;13.448;2024-01-15T02:38:43;98195.72;;;0.27;100.00
29433;BME280;16405;53.964;13.448;2024-01-15T02:41:20;98185.56;;;0.23;100.00
29433;BME280;16405;53.964;13.448;2024-01-15T02:43:45;98187.25;;;0.24;100.00
29433;BME280;16405;53.964;13.448;2024-01-15T02:46:39;98175.50;;;0.16;100.00
29433;BME280;16405;53.964;13.448;2024-01-15T02:49:05;98172.97;;;0.15;100.00
29433;BME280;16405;53.964;13.448;2024-01-15T02:51:39;98168.50;;;0.18;100.00
29433;BME280;16405;53.964;13.448;2024-01-15T02:54:08;98157.09;;;0.23;100.00
29433;BME280;16405;53.964;13.448;2024-01-15T02:56:34;98167.25;;;0.27;100.00
29433;BME280;16405;53.964;13.448;2024-01-15T02:59:08;98159.84;;;0.19;100.00
29433;BME280;16405;53.964;13.448;2024-01-15T03:01:38;98165.97;;;0.17;100.00
29433;BME280;16405;53.964;13.448;2024-01-15T03:04:03;98155.06;;;0.10;100.00
29433;BME280;16405;53.964;13.448;2024-01-15T03:06:39;98156.66;;;0.13;100.00
29433;BME280;16405;53.964;13.448;2024-01-15T03:09:07;98154.22;;;0.10;100.00
29433;BME280;16405;53.964;13.448;2024-01-15T03:11:39;98151.69;;;0.08;100.00
29433;BME280;16405;53.964;13.448;2024-01-15T03:14:10;98143.16;;;0.06;100.00
29433;BME280;16405;53.964;13.448;2024-01-15T03:16:59;98143.03;;;0.09;100.00
29433;BME280;16405;53.964;13.448;2024-01-15T03:19:28;98142.22;;;0.09;100.00
29433;BME280;16405;53.964;13.448;2024-01-15T03:22:18;98136.06;;;0.11;100.00
29433;BME280;16405;53.964;13.448;2024-01-15T03:24:46;98147.44;;;0.07;100.00
29433;BME280;16405;53.964;13.448;2024-01-15T03:27:12;98132.53;;;0.12;100.00
29433;BME280;16405;53.964;13.448;2024-01-15T03:29:48;98128.13;;;0.14;100.00
29433;BME280;16405;53.964;13.448;2024-01-15T03:32:19;98125.56;;;0.14;100.00
29433;BME280;16405;53.964;13.448;2024-01-15T03:34:53;98116.75;;;0.18;100.00
29433;BME280;16405;53.964;13.448;2024-01-15T03:37:22;98121.75;;;0.22;100.00
29433;BME280;16405;53.964;13.448;2024-01-15T03:39:58;98124.16;;;0.26;100.00
29433;BME280;16405;53.964;13.448;2024-01-15T03:42:24;98119.00;;;0.26;100.00
29433;BME280;16405;53.964;13.448;2024-01-15T03:44:50;98115.25;;;0.32;100.00
29433;BME280;16405;53.964;13.448;2024-01-15T03:47:16;98114.50;;;0.30;100.00
29433;BME280;16405;53.964;13.448;2024-01-15T03:49:52;98113.50;;;0.32;100.00
29433;BME280;16405;53.964;13.448;2024-01-15T03:52:30;98108.47;;;0.29;100.00
29433;BME280;16405;53.964;13.448;2024-01-15T03:55:00;98120.88;;;0.23;100.00
29433;BME280;16405;53.964;13.448;2024-01-15T03:57:32;98126.00;;;0.24;100.00
29433;BME280;16405;53.964;13.448;2024-01-15T04:00:18;98126.00;;;0.24;100.00
29433;BME280;16405;53.964;13.448;2024-01-15T04:03:07;98150.13;;;0.25;100.00
29433;BME280;16405;53.964;13.448;2024-01-15T04:05:36;98144.44;;;0.16;100.00
29433;BME280;16405;53.964;13.448;2024-01-15T04:08:02;98124.56;;;0.17;100.00
29433;BME280;16405;53.964;13.448;2024-01-15T04:10:28;98118.16;;;0.07;100.00
29433;BME280;16405;53.964;13.448;2024-01-15T04:13:03;98123.88;;;-0.06;100.00
29433;BME280;16405;53.964;13.448;2024-01-15T04:15:31;98120.38;;;-0.24;100.00
29433;BME280;16405;53.964;13.448;2024-01-15T04:18:19;98102.13;;;-0.21;100.00
29433;BME280;16405;53.964;13.448;2024-01-15T04:20:48;98103.78;;;-0.19;100.00
29433;BME280;16405;53.964;13.448;2024-01-15T04:23:14;98105.97;;;-0.29;100.00
29433;BME280;16405;53.964;13.448;2024-01-15T04:25:50;98100.53;;;-0.23;100.00
29433;BME280;16405;53.964;13.448;2024-01-15T04:28:18;98106.66;;;-0.26;100.00
29433;BME280;16405;53.964;13.448;2024-01-15T04:30:55;98122.53;;;-0.14;100.00
29433;BME280;16405;53.964;13.448;2024-01-15T04:33:22;98101.69;;;-0.11;100.00
29433;BME280;16405;53.964;13.448;2024-01-15T04:36:01;98116.94;;;-0.05;100.00
29433;BME280;16405;53.964;13.448;2024-01-15T04:38:26;98114.50;;;0.11;100.00
29433;BME280;16405;53.964;13.448;2024-01-15T04:40:59;98107.44;;;0.14;100.00
29433;BME280;16405;53.964;13.448;2024-01-15T04:43:27;98119.94;;;0.24;100.00
29433;BME280;16405;53.964;13.448;2024-01-15T04:45:56;98111.13;;;0.28;100.00
29433;BME280;16405;53.964;13.448;2024-01-15T04:48:30;98117.72;;;0.35;100.00
29433;BME280;16405;53.964;13.448;2024-01-15T04:50:58;98113.50;;;0.32;100.00
29433;BME280;16405;53.964;13.448;2024-01-15T04:56:15;98113.31;;;0.37;100.00
29433;BME280;16405;53.964;13.448;2024-01-15T04:58:43;98118.19;;;0.43;100.00
29433;BME280;16405;53.964;13.448;2024-01-15T05:01:18;98106.88;;;0.46;100.00
29433;BME280;16405;53.964;13.448;2024-01-15T05:04:27;98116.00;;;0.53;100.00
29433;BME280;16405;53.964;13.448;2024-01-15T05:06:57;98110.06;;;0.51;100.00
29433;BME280;16405;53.964;13.448;2024-01-15T05:09:23;98115.19;;;0.52;100.00
29433;BME280;16405;53.964;13.448;2024-01-15T05:11:58;98115.66;;;0.60;100.00
29433;BME280;16405;53.964;13.448;2024-01-15T05:14:23;98126.06;;;0.59;100.00
29433;BME280;16405;53.964;13.448;2024-01-15T05:16:49;98105.59;;;0.54;100.00
29433;BME280;16405;53.964;13.448;2024-01-15T05:19:25;98114.97;;;0.57;100.00
29433;BME280;16405;53.964;13.448;2024-01-15T05:21:50;98112.13;;;0.61;100.00
29433;BME280;16405;53.964;13.448;2024-01-15T05:24:16;98126.75;;;0.63;100.00
29433;BME280;16405;53.964;13.448;2024-01-15T05:26:50;98121.56;;;0.63;100.00
29433;BME280;16405;53.964;13.448;2024-01-15T05:29:19;98131.06;;;0.45;100.00
29433;BME280;16405;53.964;13.448;2024-01-15T05:31:45;98113.81;;;0.26;100.00
29433;BME280;16405;53.964;13.448;2024-01-15T05:34:36;98101.78;;;0.06;100.00
29433;BME280;16405;53.964;13.448;2024-01-15T05:37:17;98114.91;;;0.02;100.00
29433;BME280;16405;53.964;13.448;2024-01-15T05:39:43;98125.25;;;-0.17;100.00
29433;BME280;16405;53.964;13.448;2024-01-15T05:42:11;98099.97;;;-0.11;100.00
29433;BME280;16405;53.964;13.448;2024-01-15T05:44:48;98104.72;;;-0.02;100.00
29433;BME280;16405;53.964;13.448;2024-01-15T05:47:13;98097.56;;;-0.15;100.00
29433;BME280;16405;53.964;13.448;2024-01-15T05:49:39;98103.59;;;-0.15;100.00
29433;BME280;16405;53.964;13.448;2024-01-15T05:52:15;98111.78;;;-0.05;100.00
29433;BME280;16405;53.964;13.448;2024-01-15T05:54:41;98117.50;;;0.02;100.00
29433;BME280;16405;53.964;13.448;2024-01-15T05:57:07;98106.31;;;0.01;100.00
29433;BME280;16405;53.964;13.448;2024-01-15T05:59:38;98116.25;;;0.10;100.00
29433;BME280;16405;53.964;13.448;2024-01-15T06:02:09;98122.34;;;0.09;100.00
29433;BME280;16405;53.964;13.448;2024-01-15T06:04:35;98125.56;;;0.14;100.00
29433;BME280;16405;53.964;13.448;2024-01-15T06:07:09;98121.63;;;0.25;100.00
29433;BME280;16405;53.964;13.448;2024-01-15T06:09:36;98127.66;;;0.25;100.00
29433;BME280;16405;53.964;13.448;2024-01-15T06:12:14;98132.59;;;0.30;100.00
29433;BME280;16405;53.964;13.448;2024-01-15T06:14:58;98125.91;;;0.26;100.00
29433;BME280;16405;53.964;13.448;2024-01-15T06:17:31;98128.13;;;0.33;100.00
29433;BME280;16405;53.964;13.448;2024-01-15T06:20:00;98128.19;;;0.32;100.00
29433;BME280;16405;53.964;13.448;2024-01-15T06:25:50;98124.94;;;0.09;100.00
29433;BME280;16405;53.964;13.448;2024-01-15T06:28:16;98119.47;;;0.15;100.00
29433;BME280;16405;53.964;13.448;2024-01-15T06:30:42;98123.75;;;0.16;100.00
29433;BME280;16405;53.964;13.448;2024-01-15T06:33:07;98137.22;;;0.23;100.00
29433;BME280;16405;53.964;13.448;2024-01-15T06:35:42;98127.66;;;0.25;100.00
29433;BME280;16405;53.964;13.448;2024-01-15T06:38:08;98135.47;;;0.24;100.00
29433;BME280;16405;53.964;13.448;2024-01-15T06:40:34;98142.19;;;0.28;100.00
29433;BME280;16405;53.964;13.448;2024-01-15T06:43:09;98153.69;;;0.22;100.00
29433;BME280;16405;53.964;13.448;2024-01-15T06:45:35;98192.63;;;0.00;100.00
29433;BME280;16405;53.964;13.448;2024-01-15T06:48:01;98188.31;;;-0.61;100.00
29433;BME280;16405;53.964;13.448;2024-01-15T06:51:10;98186.59;;;-1.03;100.00
29433;BME280;16405;53.964;13.448;2024-01-15T06:53:36;98174.91;;;-1.12;100.00
29433;BME280;16405;53.964;13.448;2024-01-15T06:56:02;98167.97;;;-1.11;100.00
29433;BME280;16405;53.964;13.448;2024-01-15T06:58:28;98169.53;;;-1.07;100.00
29433;BME280;16405;53.964;13.448;2024-01-15T07:01:00;98177.59;;;-0.93;100.00
29433;BME280;16405;53.964;13.448;2024-01-15T07:03:29;98172.03;;;-0.84;100.00
29433;BME280;16405;53.964;13.448;2024-01-15T07:06:23;98164.94;;;-0.78;100.00
29433;BME280;16405;53.964;13.448;2024-01-15T07:08:49;98173.94;;;-0.67;100.00
29433;BME280;16405;53.964;13.448;2024-01-15T07:14:10;98176.50;;;-0.46;100.00
29433;BME280;16405;53.964;13.448;2024-01-15T07:16:59;98175.94;;;-0.32;100.00
29433;BME280;16405;53.964;13.448;2024-01-15T07:19:40;98181.56;;;-0.24;100.00
29433;BME280;16405;53.964;13.448;2024-01-15T07:25:21;98190.41;;;-0.09;100.00
29433;BME280;16405;53.964;13.448;2024-01-15T07:27:59;98197.56;;;-0.14;100.00
29433;BME280;16405;53.964;13.448;2024-01-15T07:30:28;98191.47;;;-0.13;99.92
29433;BME280;16405;53.964;13.448;2024-01-15T07:33:01;98202.53;;;-0.10;98.92
29433;BME280;16405;53.964;13.448;2024-01-15T07:35:29;98200.78;;;-0.09;96.64
29433;BME280;16405;53.964;13.448;2024-01-15T07:38:07;98213.59;;;-0.06;95.02
29433;BME280;16405;53.964;13.448;2024-01-15T07:41:00;98218.63;;;-0.03;92.28
29433;BME280;16405;53.964;13.448;2024-01-15T07:43:29;98214.38;;;-0.04;90.65
29433;BME280;16405;53.964;13.448;2024-01-15T07:46:18;98241.13;;;-0.05;89.27
29433;BME280;16405;53.964;13.448;2024-01-15T07:48:45;98237.53;;;-0.22;90.29
29433;BME280;16405;53.964;13.448;2024-01-15T07:51:11;98269.84;;;-0.32;91.28
29433;BME280;16405;53.964;13.448;2024-01-15T07:53:36;98245.41;;;-0.45;90.88
29433;BME280;16405;53.964;13.448;2024-01-15T07:56:02;98244.44;;;-0.43;89.71
29433;BME280;16405;53.964;13.448;2024-01-15T07:58:37;98238.00;;;-0.54;88.71
29433;BME280;16405;53.964;13.448;2024-01-15T08:03:57;98265.75;;;-0.58;86.95
29433;BME280;16405;53.964;13.448;2024-01-15T08:06:23;98277.81;;;-0.58;86.53
29433;BME280;16405;53.964;13.448;2024-01-15T08:08:49;98281.97;;;-0.54;85.78
29433;BME280;16405;53.964;13.448;2024-01-15T08:11:15;98278.88;;;-0.63;85.81
29433;BME280;16405;53.964;13.448;2024-01-15T08:13:51;98287.69;;;-0.68;86.16
29433;BME280;16405;53.964;13.448;2024-01-15T08:16:17;98272.13;;;-0.67;85.59
29433;BME280;16405;53.964;13.448;2024-01-15T08:18:44;98298.22;;;-0.73;85.02
29433;BME280;16405;53.964;13.448;2024-01-15T08:21:21;98293.09;;;-0.74;85.41
29433;BME280;16405;53.964;13.448;2024-01-15T08:23:47;98294.84;;;-0.75;86.07
29433;BME280;16405;53.964;13.448;2024-01-15T08:26:37;98292.38;;;-0.78;85.82
29433;BME280;16405;53.964;13.448;2024-01-15T08:29:03;98304.09;;;-0.69;85.35
29433;BME280;16405;53.964;13.448;2024-01-15T08:31:31;98299.97;;;-0.73;85.61
29433;BME280;16405;53.964;13.448;2024-01-15T08:34:04;98310.22;;;-0.72;84.23
29433;BME280;16405;53.964;13.448;2024-01-15T08:36:33;98316.50;;;-0.77;84.06
29433;BME280;16405;53.964;13.448;2024-01-15T08:39:10;98324.53;;;-0.85;83.63
29433;BME280;16405;53.964;13.448;2024-01-15T08:41:37;98308.91;;;-0.82;83.29
29433;BME280;16405;53.964;13.448;2024-01-15T08:44:02;98326.31;;;-0.87;83.45
29433;BME280;16405;53.964;13.448;2024-01-15T08:46:43;98318.53;;;-0.86;83.18
29433;BME280;16405;53.964;13.448;2024-01-15T08:49:19;98329.69;;;-0.85;82.57
29433;BME280;16405;53.964;13.448;2024-01-15T08:51:45;98334.84;;;-0.85;83.71
29433;BME280;16405;53.964;13.448;2024-01-15T08:54:11;98325.53;;;-0.89;84.16
29433;BME280;16405;53.964;13.448;2024-01-15T08:56:48;98324.66;;;-0.88;84.92
29433;BME280;16405;53.964;13.448;2024-01-15T08:59:16;98332.28;;;-0.85;84.97
29433;BME280;16405;53.964;13.448;2024-01-15T09:01:50;98341.00;;;-0.88;85.00
29433;BME280;16405;53.964;13.448;2024-01-15T09:04:44;98336.66;;;-0.87;84.68
29433;BME280;16405;53.964;13.448;2024-01-15T09:07:11;98336.00;;;-0.92;84.70
29433;BME280;16405;53.964;13.448;2024-01-15T09:09:37;98338.59;;;-0.92;85.21
29433;BME280;16405;53.964;13.448;2024-01-15T09:12:03;98341.22;;;-0.94;85.18
29433;BME280;16405;53.964;13.448;2024-01-15T09:14:38;98345.31;;;-0.88;86.39
29433;BME280;16405;53.964;13.448;2024-01-15T09:17:05;98348.78;;;-0.89;86.33
29433;BME280;16405;53.964;13.448;2024-01-15T09:19:31;98354.88;;;-0.90;86.53
29433;BME280;16405;53.964;13.448;2024-01-15T09:22:09;98342.06;;;-0.93;86.51
29433;BME280;16405;53.964;13.448;2024-01-15T09:24:35;98354.09;;;-0.92;86.00
29433;BME280;16405;53.964;13.448;2024-01-15T09:27:24;98359.34;;;-0.95;85.68
29433;BME280;16405;53.964;13.448;2024-01-15T09:29:52;98362.72;;;-0.93;85.37
29433;BME280;16405;53.964;13.448;2024-01-15T09:32:30;98370.28;;;-0.89;85.46
29433;BME280;16405;53.964;13.448;2024-01-15T09:35:11;98377.53;;;-0.97;85.63
29433;BME280;16405;53.964;13.448;2024-01-15T09:37:37;98393.81;;;-0.95;85.87
29433;BME280;16405;53.964;13.448;2024-01-15T09:40:16;98384.25;;;-0.93;85.88
29433;BME280;16405;53.964;13.448;2024-01-15T09:43:01;98385.94;;;-0.92;85.83
29433;BME280;16405;53.964;13.448;2024-01-15T09:45:36;98394.03;;;-1.01;85.41
29433;BME280;16405;53.964;13.448;2024-01-15T09:48:03;98387.84;;;-0.97;86.04
29433;BME280;16405;53.964;13.448;2024-01-15T09:50:57;98403.53;;;-1.01;85.86
29433;BME280;16405;53.964;13.448;2024-01-15T09:56:13;98401.00;;;-1.03;86.66
29433;BME280;16405;53.964;13.448;2024-01-15T09:58:40;98410.34;;;-1.00;86.72
29433;BME280;16405;53.964;13.448;2024-01-15T10:01:17;98410.31;;;-0.99;86.81
29433;BME280;16405;53.964;13.448;2024-01-15T10:03:51;98408.94;;;-1.09;85.73
29433;BME280;16405;53.964;13.448;2024-01-15T10:06:27;98412.59;;;-1.15;85.94
29433;BME280;16405;53.964;13.448;2024-01-15T10:09:05;98422.13;;;-1.17;85.75
29433;BME280;16405;53.964;13.448;2024-01-15T10:11:45;98433.38;;;-1.18;86.38
29433;BME280;16405;53.964;13.448;2024-01-15T10:14:12;98420.34;;;-1.15;87.12
29433;BME280;16405;53.964;13.448;2024-01-15T10:16:59;98424.78;;;-1.18;86.44
29433;BME280;16405;53.964;13.448;2024-01-15T10:19:27;98431.03;;;-1.26;86.71
29433;BME280;16405;53.964;13.448;2024-01-15T10:21:53;98418.22;;;-1.27;87.40
29433;BME280;16405;53.964;13.448;2024-01-15T10:24:29;98416.47;;;-1.27;87.70
29433;BME280;16405;53.964;13.448;2024-01-15T10:27:09;98443.91;;;-1.24;88.15
29433;BME280;16405;53.964;13.448;2024-01-15T10:29:38;98439.72;;;-1.27;88.44
29433;BME280;16405;53.964;13.448;2024-01-15T10:32:13;98434.00;;;-1.36;88.14
29433;BME280;16405;53.964;13.448;2024-01-15T10:34:57;98436.66;;;-1.38;88.32
29433;BME280;16405;53.964;13.448;2024-01-15T10:37:42;98443.88;;;-1.48;87.59
29433;BME280;16405;53.964;13.448;2024-01-15T10:40:19;98442.22;;;-1.50;87.38
29433;BME280;16405;53.964;13.448;2024-01-15T10:42:54;98454.97;;;-1.46;87.40
29433;BME280;16405;53.964;13.448;2024-01-15T10:45:23;98447.50;;;-1.53;87.18
29433;BME280;16405;53.964;13.448;2024-01-15T10:47:58;98445.84;;;-1.56;86.25
29433;BME280;16405;53.964;13.448;2024-01-15T10:50:25;98465.66;;;-1.56;87.05
29433;BME280;16405;53.964;13.448;2024-01-15T10:53:00;98464.09;;;-1.60;86.33
29433;BME280;16405;53.964;13.448;2024-01-15T10:55:38;98467.63;;;-1.63;86.55
29433;BME280;16405;53.964;13.448;2024-01-15T10:58:08;98460.88;;;-1.67;87.05
29433;BME280;16405;53.964;13.448;2024-01-15T11:00:48;98478.94;;;-1.67;86.88
29433;BME280;16405;53.964;13.448;2024-01-15T11:03:26;98470.50;;;-1.72;86.49
29433;BME280;16405;53.964;13.448;2024-01-15T11:06:04;98477.41;;;-1.73;85.74
29433;BME280;16405;53.964;13.448;2024-01-15T11:08:51;98476.38;;;-1.69;86.46
29433;BME280;16405;53.964;13.448;2024-01-15T11:11:24;98480.56;;;-1.65;86.37
29433;BME280;16405;53.964;13.448;2024-01-15T11:13:51;98498.47;;;-1.60;86.02
29433;BME280;16405;53.964;13.448;2024-01-15T11:16:18;98492.53;;;-1.62;85.59
29433;BME280;16405;53.964;13.448;2024-01-15T11:19:27;98496.78;;;-1.61;85.50
29433;BME280;16405;53.964;13.448;2024-01-15T11:22:53;98492.13;;;-1.76;85.01
29433;BME280;16405;53.964;13.448;2024-01-15T11:25:19;98508.44;;;-1.76;86.26
29433;BME280;16405;53.964;13.448;2024-01-15T11:28:00;98521.50;;;-1.80;86.33
29433;BME280;16405;53.964;13.448;2024-01-15T11:33:36;98509.59;;;-1.84;86.46
29433;BME280;16405;53.964;13.448;2024-01-15T11:36:18;98513.00;;;-1.84;86.95
29433;BME280;16405;53.964;13.448;2024-01-15T11:38:44;98518.16;;;-1.84;87.18
29433;BME280;16405;53.964;13.448;2024-01-15T11:41:17;98519.75;;;-1.80;87.95
29433;BME280;16405;53.964;13.448;2024-01-15T11:43:47;98524.19;;;-1.83;88.59
29433;BME280;16405;53.964;13.448;2024-01-15T11:46:22;98521.53;;;-1.82;89.02
29433;BME280;16405;53.964;13.448;2024-01-15T11:49:03;98515.66;;;-1.86;88.21
29433;BME280;16405;53.964;13.448;2024-01-15T11:51:31;98520.00;;;-1.88;87.73
29433;BME280;16405;53.964;13.448;2024-01-15T11:54:20;98501.16;;;-1.90;86.84
29433;BME280;16405;53.964;13.448;2024-01-15T11:56:49;98527.84;;;-1.91;86.07
29433;BME280;16405;53.964;13.448;2024-01-15T11:59:15;98531.22;;;-1.89;85.57
29433;BME280;16405;53.964;13.448;2024-01-15T12:01:49;98537.16;;;-1.87;85.77
29433;BME280;16405;53.964;13.448;2024-01-15T12:04:16;98530.25;;;-1.86;86.01
29433;BME280;16405;53.964;13.448;2024-01-15T12:07:10;98532.81;;;-1.84;86.49
29433;BME280;16405;53.964;13.448;2024-01-15T12:09:49;98534.56;;;-1.85;86.06
29433;BME280;16405;53.964;13.448;2024-01-15T12:12:34;98543.09;;;-1.83;86.94
29433;BME280;16405;53.964;13.448;2024-01-15T12:15:11;98556.53;;;-1.73;87.44
29433;BME280;16405;53.964;13.448;2024-01-15T12:17:38;98534.09;;;-1.71;87.77
29433;BME280;16405;53.964;13.448;2024-01-15T12:20:14;98548.72;;;-1.70;88.79
29433;BME280;16405;53.964;13.448;2024-01-15T12:22:41;98546.28;;;-1.75;88.37
29433;BME280;16405;53.964;13.448;2024-01-15T12:25:19;98569.50;;;-1.75;87.68
29433;BME280;16405;53.964;13.448;2024-01-15T12:27:48;98569.56;;;-1.78;87.15
29433;BME280;16405;53.964;13.448;2024-01-15T12:30:30;98574.59;;;-1.73;86.27
29433;BME280;16405;53.964;13.448;2024-01-15T12:33:08;98574.66;;;-1.75;85.19
29433;BME280;16405;53.964;13.448;2024-01-15T12:35:37;98535.00;;;-1.72;83.99
29433;BME280;16405;53.964;13.448;2024-01-15T12:38:12;98575.38;;;-1.71;83.59
29433;BME280;16405;53.964;13.448;2024-01-15T12:40:53;98578.88;;;-1.72;82.78
29433;BME280;16405;53.964;13.448;2024-01-15T12:43:48;98588.47;;;-1.77;83.03
29433;BME280;16405;53.964;13.448;2024-01-15T12:46:14;98599.56;;;-1.74;82.59
29433;BME280;16405;53.964;13.448;2024-01-15T12:48:40;98596.03;;;-1.71;83.58
29433;BME280;16405;53.964;13.448;2024-01-15T12:51:17;98602.09;;;-1.72;82.71
29433;BME280;16405;53.964;13.448;2024-01-15T12:53:43;98613.28;;;-1.73;83.16
29433;BME280;16405;53.964;13.448;2024-01-15T12:56:32;98616.13;;;-1.81;83.35
29433;BME280;16405;53.964;13.448;2024-01-15T13:01:58;98623.72;;;-1.76;82.99
29433;BME280;16405;53.964;13.448;2024-01-15T13:07:51;98631.63;;;-1.82;83.21
29433;BME280;16405;53.964;13.448;2024-01-15T13:11:01;98645.31;;;-1.79;82.95
29433;BME280;16405;53.964;13.448;2024-01-15T13:13:40;98642.88;;;-1.83;82.32
29433;BME280;16405;53.964;13.448;2024-01-15T13:17:22;98642.94;;;-1.87;82.52
29433;BME280;16405;53.964;13.448;2024-01-15T13:20:02;98660.13;;;-1.86;81.64
29433;BME280;16405;53.964;13.448;2024-01-15T13:22:42;98656.66;;;-1.86;82.00
29433;BME280;16405;53.964;13.448;2024-01-15T13:25:11;98669.56;;;-1.86;82.51
29433;BME280;16405;53.964;13.448;2024-01-15T13:27:58;98685.94;;;-1.87;82.20
29433;BME280;16405;53.964;13.448;2024-01-15T13:31:00;98689.28;;;-1.83;82.25
29433;BME280;16405;53.964;13.448;2024-01-15T13:33:26;98683.28;;;-1.84;82.79
29433;BME280;16405;53.964;13.448;2024-01-15T13:36:03;98697.03;;;-1.83;82.49
29433;BME280;16405;53.964;13.448;2024-01-15T13:38:59;98677.50;;;-1.92;81.84
29433;BME280;16405;53.964;13.448;2024-01-15T13:47:49;98713.66;;;-1.94;82.17
29433;BME280;16405;53.964;13.448;2024-01-15T13:50:23;98705.13;;;-1.96;82.55
29433;BME280;16405;53.964;13.448;2024-01-15T13:52:49;98719.78;;;-1.98;82.92
29433;BME280;16405;53.964;13.448;2024-01-15T13:55:15;98732.59;;;-1.95;82.81
29433;BME280;16405;53.964;13.448;2024-01-15T13:57:54;98730.88;;;-1.94;82.21
29433;BME280;16405;53.964;13.448;2024-01-15T14:00:20;98732.59;;;-1.95;82.73
29433;BME280;16405;53.964;13.448;2024-01-15T14:05:40;98746.53;;;-2.02;82.69
29433;BME280;16405;53.964;13.448;2024-01-15T14:08:35;98745.03;;;-2.09;82.80